Terminal Aerodrome Forecast
Issued by NWS

Home | Current Version | Previous Version | Text Only | Print | Product List | Glossary Off
Versions: 1 2 3 4 5 6 7 8 9 10 11 12 13 14 15 16 17

903
FTUS43 KUNR 300520
TAFGCC
TAF
KGCC 300520Z 3006/0106 32017KT P6SM SCT025
     FM300800 32015KT P6SM BKN025 OVC060
     FM301500 30010KT P6SM SCT100=

USA.gov is the U.S. government's official web portal to all federal, state and local government web resources and services.